sensor_id;sensor_type;location;lat;lon;timestamp;temperature;humidity
4245;DHT22;2136;48.502;9.194;2022-08-30T00:02:23;20.00;93.70
4245;DHT22;2136;48.502;9.194;2022-08-30T00:04:50;19.90;94.20
4245;DHT22;2136;48.502;9.194;2022-08-30T00:07:18;19.90;94.90
4245;DHT22;2136;48.502;9.194;2022-08-30T00:09:45;19.90;95.10
4245;DHT22;2136;48.502;9.194;2022-08-30T00:12:12;19.80;94.80
4245;DHT22;2136;48.502;9.194;2022-08-30T00:14:39;19.80;94.80
4245;DHT22;2136;48.502;9.194;2022-08-30T00:17:05;19.80;94.90
4245;DHT22;2136;48.502;9.194;2022-08-30T00:19:34;19.70;94.70
4245;DHT22;2136;48.502;9.194;2022-08-30T00:22:01;19.70;95.30
4245;DHT22;2136;48.502;9.194;2022-08-30T00:24:27;19.70;95.80
4245;DHT22;2136;48.502;9.194;2022-08-30T00:26:55;19.60;96.10
4245;DHT22;2136;48.502;9.194;2022-08-30T00:29:21;19.60;96.50
4245;DHT22;2136;48.502;9.194;2022-08-30T00:31:48;19.60;96.60
4245;DHT22;2136;48.502;9.194;2022-08-30T00:34:15;19.60;96.80
4245;DHT22;2136;48.502;9.194;2022-08-30T00:36:44;19.50;96.30
4245;DHT22;2136;48.502;9.194;2022-08-30T00:39:11;19.50;96.50
4245;DHT22;2136;48.502;9.194;2022-08-30T00:41:38;19.50;96.90
4245;DHT22;2136;48.502;9.194;2022-08-30T00:44:05;19.40;97.10
4245;DHT22;2136;48.502;9.194;2022-08-30T00:46:32;19.40;96.80
4245;DHT22;2136;48.502;9.194;2022-08-30T00:49:02;19.40;96.40
4245;DHT22;2136;48.502;9.194;2022-08-30T00:51:29;19.30;96.60
4245;DHT22;2136;48.502;9.194;2022-08-30T00:54:00;19.30;96.80
4245;DHT22;2136;48.502;9.194;2022-08-30T00:56:28;19.30;96.90
4245;DHT22;2136;48.502;9.194;2022-08-30T00:58:58;19.30;97.10
4245;DHT22;2136;48.502;9.194;2022-08-30T01:01:26;19.30;97.10
4245;DHT22;2136;48.502;9.194;2022-08-30T01:03:53;19.30;96.90
4245;DHT22;2136;48.502;9.194;2022-08-30T01:06:20;19.20;96.70
4245;DHT22;2136;48.502;9.194;2022-08-30T01:08:48;19.20;96.80
4245;DHT22;2136;48.502;9.194;2022-08-30T01:11:18;19.20;96.90
4245;DHT22;2136;48.502;9.194;2022-08-30T01:13:46;19.10;96.90
4245;DHT22;2136;48.502;9.194;2022-08-30T01:16:14;19.10;96.90
4245;DHT22;2136;48.502;9.194;2022-08-30T01:18:41;19.10;97.20
4245;DHT22;2136;48.502;9.194;2022-08-30T01:21:16;19.00;97.70
4245;DHT22;2136;48.502;9.194;2022-08-30T01:23:48;19.00;98.60
4245;DHT22;2136;48.502;9.194;2022-08-30T01:26:16;19.00;99.30
4245;DHT22;2136;48.502;9.194;2022-08-30T01:28:45;18.90;99.00
4245;DHT22;2136;48.502;9.194;2022-08-30T01:31:13;18.90;99.70
4245;DHT22;2136;48.502;9.194;2022-08-30T01:33:40;18.90;99.90
4245;DHT22;2136;48.502;9.194;2022-08-30T01:36:09;18.90;99.90
4245;DHT22;2136;48.502;9.194;2022-08-30T01:38:41;18.80;99.90
4245;DHT22;2136;48.502;9.194;2022-08-30T01:41:12;18.80;99.90
4245;DHT22;2136;48.502;9.194;2022-08-30T01:43:40;18.80;99.90
4245;DHT22;2136;48.502;9.194;2022-08-30T01:46:08;18.80;99.90
4245;DHT22;2136;48.502;9.194;2022-08-30T01:48:35;18.80;99.90
4245;DHT22;2136;48.502;9.194;2022-08-30T01:51:02;18.70;99.90
4245;DHT22;2136;48.502;9.194;2022-08-30T01:53:30;18.70;99.90
4245;DHT22;2136;48.502;9.194;2022-08-30T01:55:57;18.70;99.90
4245;DHT22;2136;48.502;9.194;2022-08-30T01:58:25;18.70;99.90
4245;DHT22;2136;48.502;9.194;2022-08-30T02:00:53;18.60;99.90
4245;DHT22;2136;48.502;9.194;2022-08-30T02:03:21;18.60;99.90
4245;DHT22;2136;48.502;9.194;2022-08-30T02:05:47;18.50;99.90
4245;DHT22;2136;48.502;9.194;2022-08-30T02:08:14;18.50;99.90
4245;DHT22;2136;48.502;9.194;2022-08-30T02:10:41;18.50;99.90
4245;DHT22;2136;48.502;9.194;2022-08-30T02:13:09;18.50;99.90
4245;DHT22;2136;48.502;9.194;2022-08-30T02:15:37;18.60;99.90
4245;DHT22;2136;48.502;9.194;2022-08-30T02:18:04;18.60;99.90
4245;DHT22;2136;48.502;9.194;2022-08-30T02:20:31;18.60;99.90
4245;DHT22;2136;48.502;9.194;2022-08-30T02:22:57;18.50;99.90
4245;DHT22;2136;48.502;9.194;2022-08-30T02:25:24;18.50;99.90
4245;DHT22;2136;48.502;9.194;2022-08-30T02:27:51;18.50;99.90
4245;DHT22;2136;48.502;9.194;2022-08-30T02:30:18;18.50;99.90
4245;DHT22;2136;48.502;9.194;2022-08-30T02:32:46;18.50;99.90
4245;DHT22;2136;48.502;9.194;2022-08-30T02:35:13;18.40;99.90
4245;DHT22;2136;48.502;9.194;2022-08-30T02:37:40;18.50;99.90
4245;DHT22;2136;48.502;9.194;2022-08-30T02:40:08;18.40;99.90
4245;DHT22;2136;48.502;9.194;2022-08-30T02:42:35;18.40;99.90
4245;DHT22;2136;48.502;9.194;2022-08-30T02:45:03;18.30;99.90
4245;DHT22;2136;48.502;9.194;2022-08-30T02:47:30;18.30;99.90
4245;DHT22;2136;48.502;9.194;2022-08-30T02:49:58;18.30;99.90
4245;DHT22;2136;48.502;9.194;2022-08-30T02:52:25;18.30;99.90
4245;DHT22;2136;48.502;9.194;2022-08-30T02:54:52;18.20;99.90
4245;DHT22;2136;48.502;9.194;2022-08-30T02:57:19;18.20;99.90
4245;DHT22;2136;48.502;9.194;2022-08-30T02:59:46;18.20;99.90
4245;DHT22;2136;48.502;9.194;2022-08-30T03:02:13;18.20;99.90
4245;DHT22;2136;48.502;9.194;2022-08-30T03:04:41;18.20;99.90
4245;DHT22;2136;48.502;9.194;2022-08-30T03:07:11;18.20;99.90
4245;DHT22;2136;48.502;9.194;2022-08-30T03:09:38;18.20;99.90
4245;DHT22;2136;48.502;9.194;2022-08-30T03:12:06;18.20;99.90
4245;DHT22;2136;48.502;9.194;2022-08-30T03:14:33;18.10;99.90
4245;DHT22;2136;48.502;9.194;2022-08-30T03:17:01;18.20;99.90
4245;DHT22;2136;48.502;9.194;2022-08-30T03:19:28;18.10;99.90
4245;DHT22;2136;48.502;9.194;2022-08-30T03:21:55;18.10;99.90
4245;DHT22;2136;48.502;9.194;2022-08-30T03:24:23;18.10;99.90
4245;DHT22;2136;48.502;9.194;2022-08-30T03:26:50;18.10;99.90
4245;DHT22;2136;48.502;9.194;2022-08-30T03:29:17;18.10;99.90
4245;DHT22;2136;48.502;9.194;2022-08-30T03:31:45;18.10;99.90
4245;DHT22;2136;48.502;9.194;2022-08-30T03:34:12;18.00;99.90
4245;DHT22;2136;48.502;9.194;2022-08-30T03:36:38;18.00;99.90
4245;DHT22;2136;48.502;9.194;2022-08-30T03:39:06;18.00;99.90
4245;DHT22;2136;48.502;9.194;2022-08-30T03:41:35;18.00;99.90
4245;DHT22;2136;48.502;9.194;2022-08-30T03:44:02;18.00;99.90
4245;DHT22;2136;48.502;9.194;2022-08-30T03:46:29;18.00;99.90
4245;DHT22;2136;48.502;9.194;2022-08-30T03:48:56;18.00;99.90
4245;DHT22;2136;48.502;9.194;2022-08-30T03:51:23;17.90;99.90
4245;DHT22;2136;48.502;9.194;2022-08-30T03:53:50;17.90;99.90
4245;DHT22;2136;48.502;9.194;2022-08-30T03:56:18;17.90;99.90
4245;DHT22;2136;48.502;9.194;2022-08-30T03:58:46;17.90;99.90
4245;DHT22;2136;48.502;9.194;2022-08-30T04:01:14;17.90;99.90
4245;DHT22;2136;48.502;9.194;2022-08-30T04:03:41;17.90;99.90
4245;DHT22;2136;48.502;9.194;2022-08-30T04:06:08;17.90;99.90
4245;DHT22;2136;48.502;9.194;2022-08-30T04:08:35;17.90;99.90
4245;DHT22;2136;48.502;9.194;2022-08-30T04:11:01;17.80;99.90
4245;DHT22;2136;48.502;9.194;2022-08-30T04:13:28;17.90;99.90
4245;DHT22;2136;48.502;9.194;2022-08-30T04:15:56;17.80;99.90
4245;DHT22;2136;48.502;9.194;2022-08-30T04:18:24;17.70;99.90
4245;DHT22;2136;48.502;9.194;2022-08-30T04:20:51;17.70;99.90
4245;DHT22;2136;48.502;9.194;2022-08-30T04:23:18;17.60;99.90
4245;DHT22;2136;48.502;9.194;2022-08-30T04:25:45;17.60;99.90
4245;DHT22;2136;48.502;9.194;2022-08-30T04:28:12;17.50;99.90
4245;DHT22;2136;48.502;9.194;2022-08-30T04:30:40;17.60;99.90
4245;DHT22;2136;48.502;9.194;2022-08-30T04:33:09;17.50;99.90
4245;DHT22;2136;48.502;9.194;2022-08-30T04:35:39;17.50;99.90
4245;DHT22;2136;48.502;9.194;2022-08-30T04:38:06;17.50;99.90
4245;DHT22;2136;48.502;9.194;2022-08-30T04:40:34;17.40;99.90
4245;DHT22;2136;48.502;9.194;2022-08-30T04:43:01;17.40;99.90
4245;DHT22;2136;48.502;9.194;2022-08-30T04:45:28;17.40;99.90
4245;DHT22;2136;48.502;9.194;2022-08-30T04:47:55;17.40;99.90
4245;DHT22;2136;48.502;9.194;2022-08-30T04:50:23;17.40;99.90
4245;DHT22;2136;48.502;9.194;2022-08-30T04:52:50;17.40;99.90
4245;DHT22;2136;48.502;9.194;2022-08-30T04:55:17;17.30;99.90
4245;DHT22;2136;48.502;9.194;2022-08-30T04:57:44;17.40;99.90
4245;DHT22;2136;48.502;9.194;2022-08-30T05:00:12;17.40;99.90
4245;DHT22;2136;48.502;9.194;2022-08-30T05:02:40;17.30;99.90
4245;DHT22;2136;48.502;9.194;2022-08-30T05:05:08;17.40;99.90
4245;DHT22;2136;48.502;9.194;2022-08-30T05:07:54;17.50;99.90
4245;DHT22;2136;48.502;9.194;2022-08-30T05:10:21;17.50;99.90
4245;DHT22;2136;48.502;9.194;2022-08-30T05:12:49;17.50;99.90
4245;DHT22;2136;48.502;9.194;2022-08-30T05:15:16;17.50;99.90
4245;DHT22;2136;48.502;9.194;2022-08-30T05:17:42;17.50;99.90
4245;DHT22;2136;48.502;9.194;2022-08-30T05:20:10;17.50;99.90
4245;DHT22;2136;48.502;9.194;2022-08-30T05:22:39;17.50;99.90
4245;DHT22;2136;48.502;9.194;2022-08-30T05:25:09;17.50;99.90
4245;DHT22;2136;48.502;9.194;2022-08-30T05:27:35;17.50;99.90
4245;DHT22;2136;48.502;9.194;2022-08-30T05:30:03;17.60;99.90
4245;DHT22;2136;48.502;9.194;2022-08-30T05:32:30;17.60;99.90
4245;DHT22;2136;48.502;9.194;2022-08-30T05:34:57;17.60;99.90
4245;DHT22;2136;48.502;9.194;2022-08-30T05:37:24;17.70;99.90
4245;DHT22;2136;48.502;9.194;2022-08-30T05:39:52;17.60;99.90
4245;DHT22;2136;48.502;9.194;2022-08-30T05:42:20;17.70;99.90
4245;DHT22;2136;48.502;9.194;2022-08-30T05:44:49;17.70;99.90
4245;DHT22;2136;48.502;9.194;2022-08-30T05:47:17;17.70;99.90
4245;DHT22;2136;48.502;9.194;2022-08-30T05:49:43;17.80;99.90
4245;DHT22;2136;48.502;9.194;2022-08-30T05:52:12;17.80;99.90
4245;DHT22;2136;48.502;9.194;2022-08-30T05:54:40;17.90;99.90
4245;DHT22;2136;48.502;9.194;2022-08-30T05:57:07;17.90;99.90
4245;DHT22;2136;48.502;9.194;2022-08-30T05:59:35;18.00;99.90
4245;DHT22;2136;48.502;9.194;2022-08-30T06:02:03;18.00;99.90
4245;DHT22;2136;48.502;9.194;2022-08-30T06:04:31;18.10;99.90
4245;DHT22;2136;48.502;9.194;2022-08-30T06:06:58;18.10;99.90
4245;DHT22;2136;48.502;9.194;2022-08-30T06:09:25;18.20;99.90
4245;DHT22;2136;48.502;9.194;2022-08-30T06:11:52;18.20;99.90
4245;DHT22;2136;48.502;9.194;2022-08-30T06:14:19;18.30;99.90
4245;DHT22;2136;48.502;9.194;2022-08-30T06:16:48;18.30;99.90
4245;DHT22;2136;48.502;9.194;2022-08-30T06:19:17;18.30;99.90
4245;DHT22;2136;48.502;9.194;2022-08-30T06:21:47;18.30;99.90
4245;DHT22;2136;48.502;9.194;2022-08-30T06:24:14;18.40;99.90
4245;DHT22;2136;48.502;9.194;2022-08-30T06:26:44;18.50;99.90
4245;DHT22;2136;48.502;9.194;2022-08-30T06:29:13;18.50;99.90
4245;DHT22;2136;48.502;9.194;2022-08-30T06:31:40;18.60;99.90
4245;DHT22;2136;48.502;9.194;2022-08-30T06:34:08;18.60;99.90
4245;DHT22;2136;48.502;9.194;2022-08-30T06:36:35;18.70;99.90
4245;DHT22;2136;48.502;9.194;2022-08-30T06:39:03;18.80;99.90
4245;DHT22;2136;48.502;9.194;2022-08-30T06:41:32;18.80;99.90
4245;DHT22;2136;48.502;9.194;2022-08-30T06:44:01;18.90;99.90
4245;DHT22;2136;48.502;9.194;2022-08-30T06:46:30;18.90;99.90
4245;DHT22;2136;48.502;9.194;2022-08-30T06:48:58;19.00;99.90
4245;DHT22;2136;48.502;9.194;2022-08-30T06:51:29;19.10;99.90
4245;DHT22;2136;48.502;9.194;2022-08-30T06:53:56;19.20;99.90
4245;DHT22;2136;48.502;9.194;2022-08-30T06:56:23;19.20;99.90
4245;DHT22;2136;48.502;9.194;2022-08-30T06:58:50;19.30;99.90
4245;DHT22;2136;48.502;9.194;2022-08-30T07:01:20;19.40;99.60
4245;DHT22;2136;48.502;9.194;2022-08-30T07:03:48;19.50;99.40
4245;DHT22;2136;48.502;9.194;2022-08-30T07:06:15;19.50;99.00
4245;DHT22;2136;48.502;9.194;2022-08-30T07:08:45;19.60;98.70
4245;DHT22;2136;48.502;9.194;2022-08-30T07:11:13;19.70;98.50
4245;DHT22;2136;48.502;9.194;2022-08-30T07:13:40;19.80;98.70
4245;DHT22;2136;48.502;9.194;2022-08-30T07:16:11;19.90;98.70
4245;DHT22;2136;48.502;9.194;2022-08-30T07:18:39;20.00;98.30
4245;DHT22;2136;48.502;9.194;2022-08-30T07:21:21;20.10;98.20
4245;DHT22;2136;48.502;9.194;2022-08-30T07:23:51;20.30;97.90
4245;DHT22;2136;48.502;9.194;2022-08-30T07:26:21;20.40;97.80
4245;DHT22;2136;48.502;9.194;2022-08-30T07:28:48;20.50;97.70
4245;DHT22;2136;48.502;9.194;2022-08-30T07:31:17;20.70;98.10
4245;DHT22;2136;48.502;9.194;2022-08-30T07:33:45;20.80;96.70
4245;DHT22;2136;48.502;9.194;2022-08-30T07:36:12;21.00;96.40
4245;DHT22;2136;48.502;9.194;2022-08-30T07:38:40;21.20;95.60
4245;DHT22;2136;48.502;9.194;2022-08-30T07:41:08;21.30;95.30
4245;DHT22;2136;48.502;9.194;2022-08-30T07:43:36;21.50;94.60
4245;DHT22;2136;48.502;9.194;2022-08-30T07:46:04;21.60;93.40
4245;DHT22;2136;48.502;9.194;2022-08-30T07:48:32;21.80;91.90
4245;DHT22;2136;48.502;9.194;2022-08-30T07:50:59;21.90;91.40
4245;DHT22;2136;48.502;9.194;2022-08-30T07:53:26;22.00;91.40
4245;DHT22;2136;48.502;9.194;2022-08-30T07:55:53;22.20;91.20
4245;DHT22;2136;48.502;9.194;2022-08-30T07:58:21;22.30;90.70
4245;DHT22;2136;48.502;9.194;2022-08-30T08:00:48;22.50;90.30
4245;DHT22;2136;48.502;9.194;2022-08-30T08:03:15;22.60;89.80
4245;DHT22;2136;48.502;9.194;2022-08-30T08:05:43;22.80;89.70
4245;DHT22;2136;48.502;9.194;2022-08-30T08:08:11;22.90;88.40
4245;DHT22;2136;48.502;9.194;2022-08-30T08:10:40;23.10;89.10
4245;DHT22;2136;48.502;9.194;2022-08-30T08:13:07;23.20;87.40
4245;DHT22;2136;48.502;9.194;2022-08-30T08:15:35;23.30;87.10
4245;DHT22;2136;48.502;9.194;2022-08-30T08:18:02;23.50;85.10
4245;DHT22;2136;48.502;9.194;2022-08-30T08:20:30;23.60;84.00
4245;DHT22;2136;48.502;9.194;2022-08-30T08:22:57;23.70;82.50
4245;DHT22;2136;48.502;9.194;2022-08-30T08:25:24;23.80;82.40
4245;DHT22;2136;48.502;9.194;2022-08-30T08:27:51;23.90;82.50
4245;DHT22;2136;48.502;9.194;2022-08-30T08:30:20;24.00;83.00
4245;DHT22;2136;48.502;9.194;2022-08-30T08:32:48;24.10;82.10
4245;DHT22;2136;48.502;9.194;2022-08-30T08:35:16;24.30;81.50
4245;DHT22;2136;48.502;9.194;2022-08-30T08:37:43;24.30;81.20
4245;DHT22;2136;48.502;9.194;2022-08-30T08:40:14;24.40;80.70
4245;DHT22;2136;48.502;9.194;2022-08-30T08:43:00;24.50;79.60
4245;DHT22;2136;48.502;9.194;2022-08-30T08:45:38;24.60;77.90
4245;DHT22;2136;48.502;9.194;2022-08-30T08:48:11;24.80;78.40
4245;DHT22;2136;48.502;9.194;2022-08-30T08:50:40;24.90;78.80
4245;DHT22;2136;48.502;9.194;2022-08-30T08:53:32;25.10;76.40
4245;DHT22;2136;48.502;9.194;2022-08-30T08:56:04;25.20;76.80
4245;DHT22;2136;48.502;9.194;2022-08-30T08:58:43;25.30;76.20
4245;DHT22;2136;48.502;9.194;2022-08-30T09:01:14;25.50;75.90
4245;DHT22;2136;48.502;9.194;2022-08-30T09:03:44;25.70;75.70
4245;DHT22;2136;48.502;9.194;2022-08-30T09:06:22;25.80;74.10
4245;DHT22;2136;48.502;9.194;2022-08-30T09:08:50;26.00;73.60
4245;DHT22;2136;48.502;9.194;2022-08-30T09:11:22;26.30;72.50
4245;DHT22;2136;48.502;9.194;2022-08-30T09:13:49;26.80;68.70
4245;DHT22;2136;48.502;9.194;2022-08-30T09:16:45;27.60;66.60
4245;DHT22;2136;48.502;9.194;2022-08-30T09:19:33;28.50;62.90
4245;DHT22;2136;48.502;9.194;2022-08-30T09:22:03;29.50;59.80
4245;DHT22;2136;48.502;9.194;2022-08-30T09:24:39;30.30;56.90
4245;DHT22;2136;48.502;9.194;2022-08-30T09:27:15;31.60;54.60
4245;DHT22;2136;48.502;9.194;2022-08-30T09:29:54;33.20;49.80
4245;DHT22;2136;48.502;9.194;2022-08-30T09:32:34;35.00;48.30
4245;DHT22;2136;48.502;9.194;2022-08-30T09:35:05;36.90;44.40
4245;DHT22;2136;48.502;9.194;2022-08-30T09:37:44;38.90;41.60
4245;DHT22;2136;48.502;9.194;2022-08-30T09:40:16;40.70;38.30
4245;DHT22;2136;48.502;9.194;2022-08-30T09:43:05;42.40;35.10
4245;DHT22;2136;48.502;9.194;2022-08-30T09:45:35;44.30;33.00
4245;DHT22;2136;48.502;9.194;2022-08-30T09:48:27;45.80;31.50
4245;DHT22;2136;48.502;9.194;2022-08-30T09:51:20;47.10;29.90
4245;DHT22;2136;48.502;9.194;2022-08-30T09:53:54;48.40;28.60
4245;DHT22;2136;48.502;9.194;2022-08-30T09:56:28;49.70;28.40
4245;DHT22;2136;48.502;9.194;2022-08-30T09:59:04;51.00;28.00
4245;DHT22;2136;48.502;9.194;2022-08-30T10:01:36;52.30;26.60
4245;DHT22;2136;48.502;9.194;2022-08-30T10:04:12;53.00;25.80
4245;DHT22;2136;48.502;9.194;2022-08-30T10:06:49;53.20;24.90
4245;DHT22;2136;48.502;9.194;2022-08-30T10:09:23;53.80;24.10
4245;DHT22;2136;48.502;9.194;2022-08-30T10:11:57;54.10;23.90
4245;DHT22;2136;48.502;9.194;2022-08-30T10:14:41;54.90;24.20
4245;DHT22;2136;48.502;9.194;2022-08-30T10:17:17;55.70;23.10
4245;DHT22;2136;48.502;9.194;2022-08-30T10:19:56;56.10;23.50
4245;DHT22;2136;48.502;9.194;2022-08-30T10:22:32;56.20;22.40
4245;DHT22;2136;48.502;9.194;2022-08-30T10:25:04;56.30;22.30
4245;DHT22;2136;48.502;9.194;2022-08-30T10:27:35;56.60;22.50
4245;DHT22;2136;48.502;9.194;2022-08-30T10:30:07;56.80;22.10
4245;DHT22;2136;48.502;9.194;2022-08-30T10:32:40;57.20;21.50
4245;DHT22;2136;48.502;9.194;2022-08-30T10:35:12;57.40;21.50
4245;DHT22;2136;48.502;9.194;2022-08-30T10:37:45;57.80;21.50
4245;DHT22;2136;48.502;9.194;2022-08-30T10:40:18;57.80;21.10
4245;DHT22;2136;48.502;9.194;2022-08-30T10:43:10;57.50;21.30
4245;DHT22;2136;48.502;9.194;2022-08-30T10:45:41;56.60;21.10
4245;DHT22;2136;48.502;9.194;2022-08-30T10:48:16;56.00;21.30
4245;DHT22;2136;48.502;9.194;2022-08-30T10:50:48;55.50;21.70
4245;DHT22;2136;48.502;9.194;2022-08-30T10:53:20;54.80;21.80
4245;DHT22;2136;48.502;9.194;2022-08-30T10:55:52;54.20;21.60
4245;DHT22;2136;48.502;9.194;2022-08-30T10:58:20;53.80;22.30
4245;DHT22;2136;48.502;9.194;2022-08-30T11:00:59;53.30;22.60
4245;DHT22;2136;48.502;9.194;2022-08-30T11:03:57;52.60;22.70
4245;DHT22;2136;48.502;9.194;2022-08-30T11:06:36;51.90;23.00
4245;DHT22;2136;48.502;9.194;2022-08-30T11:09:20;50.90;22.60
4245;DHT22;2136;48.502;9.194;2022-08-30T11:12:10;49.40;23.50
4245;DHT22;2136;48.502;9.194;2022-08-30T11:14:43;47.90;23.80
4245;DHT22;2136;48.502;9.194;2022-08-30T11:17:24;46.30;25.00
4245;DHT22;2136;48.502;9.194;2022-08-30T11:19:52;44.70;25.90
4245;DHT22;2136;48.502;9.194;2022-08-30T11:22:23;43.80;26.20
4245;DHT22;2136;48.502;9.194;2022-08-30T11:25:06;43.20;28.20
4245;DHT22;2136;48.502;9.194;2022-08-30T11:27:42;42.40;29.30
4245;DHT22;2136;48.502;9.194;2022-08-30T11:30:49;42.00;28.60
4245;DHT22;2136;48.502;9.194;2022-08-30T11:33:43;42.00;29.00
4245;DHT22;2136;48.502;9.194;2022-08-30T11:36:11;41.70;28.90
4245;DHT22;2136;48.502;9.194;2022-08-30T11:39:00;41.10;28.80
4245;DHT22;2136;48.502;9.194;2022-08-30T11:41:33;40.20;29.00
4245;DHT22;2136;48.502;9.194;2022-08-30T11:44:26;39.50;28.50
4245;DHT22;2136;48.502;9.194;2022-08-30T11:46:54;39.20;29.70
4245;DHT22;2136;48.502;9.194;2022-08-30T11:49:50;39.00;31.50
4245;DHT22;2136;48.502;9.194;2022-08-30T11:52:30;38.80;31.00
4245;DHT22;2136;48.502;9.194;2022-08-30T11:55:12;38.50;30.90
4245;DHT22;2136;48.502;9.194;2022-08-30T11:57:49;38.10;31.40
4245;DHT22;2136;48.502;9.194;2022-08-30T12:00:30;37.70;32.00
4245;DHT22;2136;48.502;9.194;2022-08-30T12:03:00;37.30;32.60
4245;DHT22;2136;48.502;9.194;2022-08-30T12:08:41;36.40;32.50
4245;DHT22;2136;48.502;9.194;2022-08-30T12:14:40;35.60;34.80
4245;DHT22;2136;48.502;9.194;2022-08-30T12:17:20;35.20;34.30
4245;DHT22;2136;48.502;9.194;2022-08-30T12:20:14;35.00;34.30
4245;DHT22;2136;48.502;9.194;2022-08-30T12:22:41;34.80;35.20
4245;DHT22;2136;48.502;9.194;2022-08-30T12:25:21;34.60;35.80
4245;DHT22;2136;48.502;9.194;2022-08-30T12:27:49;34.30;36.60
4245;DHT22;2136;48.502;9.194;2022-08-30T12:30:25;34.10;36.60
4245;DHT22;2136;48.502;9.194;2022-08-30T12:32:53;33.90;36.90
4245;DHT22;2136;48.502;9.194;2022-08-30T12:35:22;33.70;36.90
4245;DHT22;2136;48.502;9.194;2022-08-30T12:37:57;33.50;37.90
4245;DHT22;2136;48.502;9.194;2022-08-30T12:40:25;33.40;38.10
4245;DHT22;2136;48.502;9.194;2022-08-30T12:42:54;33.30;37.90
4245;DHT22;2136;48.502;9.194;2022-08-30T12:45:26;33.20;38.20
4245;DHT22;2136;48.502;9.194;2022-08-30T12:47:57;33.10;39.00
4245;DHT22;2136;48.502;9.194;2022-08-30T12:50:27;33.00;39.10
4245;DHT22;2136;48.502;9.194;2022-08-30T12:52:57;32.90;39.50
4245;DHT22;2136;48.502;9.194;2022-08-30T12:55:28;32.90;39.60
4245;DHT22;2136;48.502;9.194;2022-08-30T12:57:59;32.80;39.30
4245;DHT22;2136;48.502;9.194;2022-08-30T13:00:29;32.80;38.90
4245;DHT22;2136;48.502;9.194;2022-08-30T13:02:59;32.70;39.30
4245;DHT22;2136;48.502;9.194;2022-08-30T13:05:44;32.60;40.30
4245;DHT22;2136;48.502;9.194;2022-08-30T13:08:17;32.70;39.50
4245;DHT22;2136;48.502;9.194;2022-08-30T13:10:56;32.80;39.60
4245;DHT22;2136;48.502;9.194;2022-08-30T13:13:36;32.80;37.20
4245;DHT22;2136;48.502;9.194;2022-08-30T13:16:20;32.90;38.60
4245;DHT22;2136;48.502;9.194;2022-08-30T13:18:50;32.90;38.50
4245;DHT22;2136;48.502;9.194;2022-08-30T13:21:24;33.00;38.00
4245;DHT22;2136;48.502;9.194;2022-08-30T13:23:55;33.20;37.80
4245;DHT22;2136;48.502;9.194;2022-08-30T13:26:23;33.40;38.50
4245;DHT22;2136;48.502;9.194;2022-08-30T13:28:51;33.40;38.50
4245;DHT22;2136;48.502;9.194;2022-08-30T13:31:20;33.40;37.90
4245;DHT22;2136;48.502;9.194;2022-08-30T13:33:47;33.40;38.90
4245;DHT22;2136;48.502;9.194;2022-08-30T13:36:18;33.30;39.20
4245;DHT22;2136;48.502;9.194;2022-08-30T13:38:46;33.30;39.50
4245;DHT22;2136;48.502;9.194;2022-08-30T13:41:14;33.40;39.00
4245;DHT22;2136;48.502;9.194;2022-08-30T13:43:41;33.50;39.00
4245;DHT22;2136;48.502;9.194;2022-08-30T13:46:09;33.50;38.50
4245;DHT22;2136;48.502;9.194;2022-08-30T13:48:39;33.50;39.10
4245;DHT22;2136;48.502;9.194;2022-08-30T13:51:06;33.30;38.90
4245;DHT22;2136;48.502;9.194;2022-08-30T13:53:33;33.20;38.50
4245;DHT22;2136;48.502;9.194;2022-08-30T13:56:01;33.10;39.00
4245;DHT22;2136;48.502;9.194;2022-08-30T13:58:29;32.90;39.70
4245;DHT22;2136;48.502;9.194;2022-08-30T14:00:56;32.80;39.80
4245;DHT22;2136;48.502;9.194;2022-08-30T14:03:24;32.70;39.70
4245;DHT22;2136;48.502;9.194;2022-08-30T14:05:52;32.60;39.30
4245;DHT22;2136;48.502;9.194;2022-08-30T14:08:21;32.60;39.30
4245;DHT22;2136;48.502;9.194;2022-08-30T14:10:48;32.50;39.40
4245;DHT22;2136;48.502;9.194;2022-08-30T14:13:15;32.40;40.10
4245;DHT22;2136;48.502;9.194;2022-08-30T14:15:42;32.20;40.80
4245;DHT22;2136;48.502;9.194;2022-08-30T14:18:10;32.00;41.00
4245;DHT22;2136;48.502;9.194;2022-08-30T14:20:37;31.90;41.30
4245;DHT22;2136;48.502;9.194;2022-08-30T14:23:05;31.80;40.80
4245;DHT22;2136;48.502;9.194;2022-08-30T14:25:32;31.90;41.30
4245;DHT22;2136;48.502;9.194;2022-08-30T14:27:59;32.00;41.40
4245;DHT22;2136;48.502;9.194;2022-08-30T14:30:26;32.10;41.20
4245;DHT22;2136;48.502;9.194;2022-08-30T14:32:53;32.10;41.30
4245;DHT22;2136;48.502;9.194;2022-08-30T14:35:20;32.10;41.10
4245;DHT22;2136;48.502;9.194;2022-08-30T14:37:48;32.10;42.00
4245;DHT22;2136;48.502;9.194;2022-08-30T14:40:17;32.00;41.10
4245;DHT22;2136;48.502;9.194;2022-08-30T14:42:44;31.90;41.20
4245;DHT22;2136;48.502;9.194;2022-08-30T14:45:11;31.80;41.20
4245;DHT22;2136;48.502;9.194;2022-08-30T14:47:38;31.70;41.70
4245;DHT22;2136;48.502;9.194;2022-08-30T14:50:06;31.50;41.50
4245;DHT22;2136;48.502;9.194;2022-08-30T14:52:33;31.30;41.60
4245;DHT22;2136;48.502;9.194;2022-08-30T14:55:00;31.10;42.00
4245;DHT22;2136;48.502;9.194;2022-08-30T14:57:29;30.90;42.90
4245;DHT22;2136;48.502;9.194;2022-08-30T14:59:56;30.80;43.40
4245;DHT22;2136;48.502;9.194;2022-08-30T15:02:23;30.60;43.50
4245;DHT22;2136;48.502;9.194;2022-08-30T15:04:49;30.60;43.40
4245;DHT22;2136;48.502;9.194;2022-08-30T15:07:16;30.50;43.00
4245;DHT22;2136;48.502;9.194;2022-08-30T15:09:43;30.40;43.00
4245;DHT22;2136;48.502;9.194;2022-08-30T15:12:10;30.30;42.90
4245;DHT22;2136;48.502;9.194;2022-08-30T15:14:38;30.30;43.70
4245;DHT22;2136;48.502;9.194;2022-08-30T15:17:05;30.20;44.00
4245;DHT22;2136;48.502;9.194;2022-08-30T15:19:32;30.10;43.90
4245;DHT22;2136;48.502;9.194;2022-08-30T15:22:01;30.10;44.30
4245;DHT22;2136;48.502;9.194;2022-08-30T15:24:28;30.20;44.60
4245;DHT22;2136;48.502;9.194;2022-08-30T15:26:55;30.20;44.10
4245;DHT22;2136;48.502;9.194;2022-08-30T15:29:22;30.20;43.80
4245;DHT22;2136;48.502;9.194;2022-08-30T15:31:51;30.20;44.70
4245;DHT22;2136;48.502;9.194;2022-08-30T15:34:20;30.10;44.30
4245;DHT22;2136;48.502;9.194;2022-08-30T15:36:47;30.00;43.90
4245;DHT22;2136;48.502;9.194;2022-08-30T15:39:15;29.90;44.20
4245;DHT22;2136;48.502;9.194;2022-08-30T15:41:43;29.80;44.50
4245;DHT22;2136;48.502;9.194;2022-08-30T15:44:10;29.70;45.20
4245;DHT22;2136;48.502;9.194;2022-08-30T15:46:39;29.60;45.00
4245;DHT22;2136;48.502;9.194;2022-08-30T15:49:11;29.50;44.80
4245;DHT22;2136;48.502;9.194;2022-08-30T15:51:39;29.50;44.90
4245;DHT22;2136;48.502;9.194;2022-08-30T15:54:06;29.40;45.20
4245;DHT22;2136;48.502;9.194;2022-08-30T15:56:34;29.40;45.70
4245;DHT22;2136;48.502;9.194;2022-08-30T15:59:01;29.30;45.30
4245;DHT22;2136;48.502;9.194;2022-08-30T16:01:27;29.20;45.30
4245;DHT22;2136;48.502;9.194;2022-08-30T16:03:54;29.10;45.30
4245;DHT22;2136;48.502;9.194;2022-08-30T16:06:24;29.00;45.50
4245;DHT22;2136;48.502;9.194;2022-08-30T16:08:52;28.90;46.50
4245;DHT22;2136;48.502;9.194;2022-08-30T16:11:20;28.70;45.60
4245;DHT22;2136;48.502;9.194;2022-08-30T16:13:48;28.60;45.70
4245;DHT22;2136;48.502;9.194;2022-08-30T16:16:15;28.50;45.70
4245;DHT22;2136;48.502;9.194;2022-08-30T16:18:42;28.40;46.00
4245;DHT22;2136;48.502;9.194;2022-08-30T16:21:12;28.30;46.60
4245;DHT22;2136;48.502;9.194;2022-08-30T16:23:42;28.20;47.00
4245;DHT22;2136;48.502;9.194;2022-08-30T16:26:10;28.20;47.50
4245;DHT22;2136;48.502;9.194;2022-08-30T16:28:37;28.10;47.50